Latest METARs, TAFs and NOTAMs for SKCL


---------------------------------------------------------------------------
	(OBSERVATIONS)
SKCL 051400Z VRB02KT 9999 FEW040 BKN150 25/19 A2998=
SKCL 051300Z 17004KT 9999 VCSH FEW040 BKN150 23/20 A2999 RMK
    VCSH/E=
SKCL 051200Z 13003KT 9999 SCT040 SCT150 22/20 A2996=
---------------------------------------------------------------------------
	(TERMINAL AREA FORECAST)
SKCL 051100Z 0512/0612 02006KT 9999 FEW030 SCT120
    TEMPO 0512/0513 9000 MIFG -DZ SCT018
    TEMPO 0518/0523 32007KT SCT030
    PROB40 0519/0522 8000 -DZRA SCT020TCU
    TEMPO 0610/0612 8000 MIFG SCT015
    TX32/0519Z TN19/0611Z=
---------------------------------------------------------------------------
	(NOTAMS)


SKCL A0248/15 FIRE FIGHTING AND RESCUE SERVICE CHG TO CAT 8.
    REMARKS: TOTAL CAPACITY OF DISCHARGE 14950 LT/MIN REF. AIP
    COLOMBIA SKCL AD 2.6. 02 FEB 21:00 2015 UNTIL PERM. CREATED:
    01 MAR 05:52 2015

SKCL A0935/15 STAR RNAV (GNSS) ISAD1B, OREG1B RWY 19 NO AVBL
    REF. AIP SKCL STAR 9. H24, 08 APR 18:00 2015 UNTIL PERM.
    CREATED: 08 APR 18:07 2015

SKCL A1050/15 APRON, CARGO APRON AND DECONGESTION APRON WIP,
    EXER CTN. 19 APR 22:15 2015 UNTIL 31 JUL 23:59 2015. CREATED:
    01 MAY 04:42 2015

SKCL A1051/15 TWY A,B,C,C1,C2,D,E,F,G WIP, EXER CTN. H24, 19
    APR 22:30 2015 UNTIL 31 JUL 23:59 2015. CREATED: 19 APR 22:33
    2015

SKCL A1052/15 RWY 01/19 TURNING BAY LTD, ACFT PROHIBITED PARALLEL
    OR ONE SURPASSES THE OTHER ACFT, EXER CTN. 19 APR 22:40 2015
    UNTIL 31 JUL 23:59 2015. CREATED: 01 MAY 04:42 2015

SKCL A1232/15 SEQUENCED FLG LGT RWY 01 U/S. 04 MAY 16:50 2015
    UNTIL 04 AUG 23:59 2015 ESTIMATED. CREATED: 04 MAY 16:58
    2015

SKCL A1329/15 APRON NTL AND INTL WIP, EXER CTN. H24, 14 MAY 19:30
    2015 UNTIL 14 AUG 23:59 2015 ESTIMATED. CREATED: 14 MAY 19:33
    2015

SKCL A1500/15 MOV AREA WO VERTICAL SIGNALLING, EXER CTN. H24,
    30 MAY 11:44 2015 UNTIL 08 AUG 23:59 2015. CREATED: 30 MAY
    11:45 2015

SKCL A1645/15 ACFT STAND NR 15,16 AUTH ENGINES START. 17 JUN
    21:20 2015 UNTIL 30 SEP 23:59 2015. CREATED: 01 JUL 04:55
    2015

SKCL A1685/15 RWY 01/19 CLSD. DLY BTN 0600-1015, 01 NOV 06:00
    2015 UNTIL 28 FEB 10:15 2017. CREATED: 24 JUN 01:24 2015

SKCL A1691/15 LGT EDGE TWY D U/S. 03 JUL 15:36 2015 UNTIL 02
    OCT 23:59 2015 ESTIMATED. CREATED: 03 JUL 15:41 2015

SKCL A1765/15 INTL APN LTD, RESTRICTED OPS ACFT GEN AVIATION
    DAYS TUE, THU Y SAT, GEN AVIATION WILL BE RELOCATED IN DESCONGESTION
    APN AND CARGO APN NOTE: CREW MUST INFORM TO CECOA WHEN OVERNIGHT
    WILL BE PRETEND AND DEPARTURE DATE TEL. (57) 3155779760 -
    (57-2) 2800111. 02 JUL 15:57 2015 UNTIL 31 JUL 23:59 2015.
    CREATED: 02 JUL 16:05 2015

SKCL V0068/15 [DOD PROCEDURAL NOTAM] INSTRUMENT APPROACH PROCEDURE
    NOT AUTHORIZED: ILS RWY 01 AMDT 1, VOR RWY 19 ORIG, ANKIN
    5A, 5B, DEPARTURE, BUN 6A DEPARTURE, BUN 6C DEPARTURE NOT
    AUTHORIZED. 25 JUN 22:10 2015 UNTIL 15 OCT 23:59 2015. CREATED:
    25 JUN 22:07 2015

---------------------------------------------------------------------------